sensor_id;sensor_type;location;lat;lon;timestamp;P1;durP1;ratioP1;P2;durP2;ratioP2
27031;SDS011;14580;52.918;9.214;2023-02-15T00:01:35;112.87;;;17.17;;
27031;SDS011;14580;52.918;9.214;2023-02-15T00:04:01;111.87;;;16.53;;
27031;SDS011;14580;52.918;9.214;2023-02-15T00:06:27;63.77;;;14.93;;
27031;SDS011;14580;52.918;9.214;2023-02-15T00:08:53;132.23;;;17.87;;
27031;SDS011;14580;52.918;9.214;2023-02-15T00:11:19;74.87;;;16.10;;
27031;SDS011;14580;52.918;9.214;2023-02-15T00:14:11;50.37;;;14.27;;
27031;SDS011;14580;52.918;9.214;2023-02-15T00:16:37;71.37;;;16.40;;
27031;SDS011;14580;52.918;9.214;2023-02-15T00:19:04;77.77;;;15.03;;
27031;SDS011;14580;52.918;9.214;2023-02-15T00:21:31;54.93;;;14.00;;
27031;SDS011;14580;52.918;9.214;2023-02-15T00:23:58;70.10;;;15.20;;
27031;SDS011;14580;52.918;9.214;2023-02-15T00:26:24;71.60;;;14.30;;
27031;SDS011;14580;52.918;9.214;2023-02-15T00:28:50;74.43;;;15.93;;
27031;SDS011;14580;52.918;9.214;2023-02-15T00:31:15;44.50;;;14.00;;
27031;SDS011;14580;52.918;9.214;2023-02-15T00:33:41;96.43;;;15.67;;
27031;SDS011;14580;52.918;9.214;2023-02-15T00:36:07;114.90;;;15.87;;
27031;SDS011;14580;52.918;9.214;2023-02-15T00:38:34;47.60;;;14.00;;
27031;SDS011;14580;52.918;9.214;2023-02-15T00:41:02;50.93;;;15.60;;
27031;SDS011;14580;52.918;9.214;2023-02-15T00:43:29;51.60;;;15.07;;
27031;SDS011;14580;52.918;9.214;2023-02-15T00:45:55;51.77;;;14.57;;
27031;SDS011;14580;52.918;9.214;2023-02-15T00:48:21;103.00;;;15.27;;
27031;SDS011;14580;52.918;9.214;2023-02-15T00:50:51;47.63;;;14.70;;
27031;SDS011;14580;52.918;9.214;2023-02-15T00:53:18;75.10;;;15.93;;
27031;SDS011;14580;52.918;9.214;2023-02-15T00:55:44;72.57;;;14.47;;
27031;SDS011;14580;52.918;9.214;2023-02-15T00:58:10;79.03;;;15.33;;
27031;SDS011;14580;52.918;9.214;2023-02-15T01:00:37;60.37;;;14.00;;
27031;SDS011;14580;52.918;9.214;2023-02-15T01:03:03;62.00;;;14.27;;
27031;SDS011;14580;52.918;9.214;2023-02-15T01:05:29;45.20;;;14.40;;
27031;SDS011;14580;52.918;9.214;2023-02-15T01:07:56;128.00;;;17.83;;
27031;SDS011;14580;52.918;9.214;2023-02-15T01:10:22;37.43;;;12.87;;
27031;SDS011;14580;52.918;9.214;2023-02-15T01:12:49;56.67;;;13.87;;
27031;SDS011;14580;52.918;9.214;2023-02-15T01:15:15;86.73;;;14.07;;
27031;SDS011;14580;52.918;9.214;2023-02-15T01:17:41;55.07;;;14.10;;
27031;SDS011;14580;52.918;9.214;2023-02-15T01:20:09;42.40;;;13.37;;
27031;SDS011;14580;52.918;9.214;2023-02-15T01:22:35;76.07;;;15.10;;
27031;SDS011;14580;52.918;9.214;2023-02-15T01:25:00;56.73;;;14.23;;
27031;SDS011;14580;52.918;9.214;2023-02-15T01:27:26;76.47;;;14.77;;
27031;SDS011;14580;52.918;9.214;2023-02-15T01:29:51;50.40;;;14.47;;
27031;SDS011;14580;52.918;9.214;2023-02-15T01:32:17;81.07;;;14.20;;
27031;SDS011;14580;52.918;9.214;2023-02-15T01:34:43;35.87;;;13.57;;
27031;SDS011;14580;52.918;9.214;2023-02-15T01:37:08;39.43;;;12.63;;
27031;SDS011;14580;52.918;9.214;2023-02-15T01:39:34;63.83;;;13.90;;
27031;SDS011;14580;52.918;9.214;2023-02-15T01:41:59;35.53;;;12.10;;
27031;SDS011;14580;52.918;9.214;2023-02-15T01:47:44;41.17;;;12.37;;
27031;SDS011;14580;52.918;9.214;2023-02-15T01:53:01;38.53;;;12.30;;
27031;SDS011;14580;52.918;9.214;2023-02-15T01:55:33;46.93;;;12.67;;
27031;SDS011;14580;52.918;9.214;2023-02-15T01:58:03;64.50;;;14.20;;
27031;SDS011;14580;52.918;9.214;2023-02-15T02:00:29;48.10;;;11.80;;
27031;SDS011;14580;52.918;9.214;2023-02-15T02:02:55;60.67;;;13.23;;
27031;SDS011;14580;52.918;9.214;2023-02-15T02:05:22;54.27;;;12.80;;
27031;SDS011;14580;52.918;9.214;2023-02-15T02:07:48;64.30;;;13.30;;
27031;SDS011;14580;52.918;9.214;2023-02-15T02:10:17;38.03;;;11.37;;
27031;SDS011;14580;52.918;9.214;2023-02-15T02:12:45;35.80;;;10.67;;
27031;SDS011;14580;52.918;9.214;2023-02-15T02:15:12;75.20;;;13.53;;
27031;SDS011;14580;52.918;9.214;2023-02-15T02:17:45;46.37;;;12.73;;
27031;SDS011;14580;52.918;9.214;2023-02-15T02:34:31;134.60;;;14.17;;
27031;SDS011;14580;52.918;9.214;2023-02-15T02:37:19;20.67;;;10.63;;
27031;SDS011;14580;52.918;9.214;2023-02-15T02:40:16;96.33;;;14.17;;
27031;SDS011;14580;52.918;9.214;2023-02-15T02:42:50;42.30;;;12.53;;
27031;SDS011;14580;52.918;9.214;2023-02-15T02:45:24;41.37;;;11.53;;
27031;SDS011;14580;52.918;9.214;2023-02-15T02:47:53;36.57;;;11.77;;
27031;SDS011;14580;52.918;9.214;2023-02-15T02:50:39;45.57;;;11.47;;
27031;SDS011;14580;52.918;9.214;2023-02-15T02:53:06;61.77;;;11.80;;
27031;SDS011;14580;52.918;9.214;2023-02-15T02:55:36;42.40;;;11.30;;
27031;SDS011;14580;52.918;9.214;2023-02-15T02:58:23;41.80;;;12.37;;
27031;SDS011;14580;52.918;9.214;2023-02-15T03:01:11;99.47;;;13.80;;
27031;SDS011;14580;52.918;9.214;2023-02-15T03:03:41;37.87;;;10.90;;
27031;SDS011;14580;52.918;9.214;2023-02-15T03:06:13;89.03;;;11.90;;
27031;SDS011;14580;52.918;9.214;2023-02-15T03:08:45;45.43;;;11.13;;
27031;SDS011;14580;52.918;9.214;2023-02-15T03:11:13;61.13;;;12.90;;
27031;SDS011;14580;52.918;9.214;2023-02-15T03:13:39;76.67;;;11.83;;
27031;SDS011;14580;52.918;9.214;2023-02-15T03:16:06;27.80;;;10.57;;
27031;SDS011;14580;52.918;9.214;2023-02-15T03:18:55;86.67;;;13.10;;
27031;SDS011;14580;52.918;9.214;2023-02-15T03:21:51;51.70;;;12.30;;
27031;SDS011;14580;52.918;9.214;2023-02-15T03:24:32;66.23;;;12.00;;
27031;SDS011;14580;52.918;9.214;2023-02-15T03:27:02;77.80;;;12.80;;
27031;SDS011;14580;52.918;9.214;2023-02-15T03:29:29;21.77;;;9.77;;
27031;SDS011;14580;52.918;9.214;2023-02-15T03:32:00;32.57;;;11.10;;
27031;SDS011;14580;52.918;9.214;2023-02-15T03:34:28;40.97;;;11.10;;
27031;SDS011;14580;52.918;9.214;2023-02-15T03:42:16;76.70;;;12.17;;
27031;SDS011;14580;52.918;9.214;2023-02-15T03:45:11;34.93;;;10.40;;
27031;SDS011;14580;52.918;9.214;2023-02-15T03:47:47;46.70;;;10.27;;
27031;SDS011;14580;52.918;9.214;2023-02-15T03:50:20;48.70;;;11.20;;
27031;SDS011;14580;52.918;9.214;2023-02-15T03:53:07;30.90;;;9.90;;
27031;SDS011;14580;52.918;9.214;2023-02-15T03:55:35;18.00;;;9.03;;
27031;SDS011;14580;52.918;9.214;2023-02-15T03:58:01;48.90;;;11.80;;
27031;SDS011;14580;52.918;9.214;2023-02-15T04:00:48;21.30;;;10.70;;
27031;SDS011;14580;52.918;9.214;2023-02-15T04:06:11;19.67;;;10.07;;
27031;SDS011;14580;52.918;9.214;2023-02-15T04:08:36;25.57;;;10.73;;
27031;SDS011;14580;52.918;9.214;2023-02-15T04:11:20;57.73;;;11.23;;
27031;SDS011;14580;52.918;9.214;2023-02-15T04:13:46;41.27;;;9.93;;
27031;SDS011;14580;52.918;9.214;2023-02-15T04:16:11;94.87;;;11.93;;
27031;SDS011;14580;52.918;9.214;2023-02-15T04:18:41;36.80;;;9.93;;
27031;SDS011;14580;52.918;9.214;2023-02-15T04:21:28;24.97;;;9.40;;
27031;SDS011;14580;52.918;9.214;2023-02-15T04:24:13;24.60;;;9.17;;
27031;SDS011;14580;52.918;9.214;2023-02-15T04:26:57;42.70;;;11.17;;
27031;SDS011;14580;52.918;9.214;2023-02-15T04:29:24;83.63;;;12.40;;
27031;SDS011;14580;52.918;9.214;2023-02-15T04:31:51;19.37;;;9.23;;
27031;SDS011;14580;52.918;9.214;2023-02-15T04:34:18;48.77;;;10.17;;
27031;SDS011;14580;52.918;9.214;2023-02-15T04:36:43;37.07;;;10.73;;
27031;SDS011;14580;52.918;9.214;2023-02-15T04:39:09;28.83;;;9.57;;
27031;SDS011;14580;52.918;9.214;2023-02-15T04:41:38;34.97;;;9.83;;
27031;SDS011;14580;52.918;9.214;2023-02-15T04:44:03;66.90;;;10.77;;
27031;SDS011;14580;52.918;9.214;2023-02-15T04:46:29;27.07;;;9.70;;
27031;SDS011;14580;52.918;9.214;2023-02-15T04:48:55;28.47;;;8.83;;
27031;SDS011;14580;52.918;9.214;2023-02-15T04:51:21;18.47;;;8.53;;
27031;SDS011;14580;52.918;9.214;2023-02-15T04:53:46;33.33;;;9.37;;
27031;SDS011;14580;52.918;9.214;2023-02-15T04:56:12;39.40;;;9.47;;
27031;SDS011;14580;52.918;9.214;2023-02-15T04:58:38;45.23;;;10.33;;
27031;SDS011;14580;52.918;9.214;2023-02-15T05:01:06;42.73;;;9.40;;
27031;SDS011;14580;52.918;9.214;2023-02-15T05:03:32;26.87;;;8.70;;
27031;SDS011;14580;52.918;9.214;2023-02-15T05:05:58;54.87;;;10.57;;
27031;SDS011;14580;52.918;9.214;2023-02-15T05:08:24;42.77;;;9.33;;
27031;SDS011;14580;52.918;9.214;2023-02-15T05:10:49;19.57;;;9.03;;
27031;SDS011;14580;52.918;9.214;2023-02-15T05:13:15;26.27;;;8.97;;
27031;SDS011;14580;52.918;9.214;2023-02-15T05:15:41;45.90;;;9.20;;
27031;SDS011;14580;52.918;9.214;2023-02-15T05:18:11;42.53;;;10.00;;
27031;SDS011;14580;52.918;9.214;2023-02-15T05:20:36;43.43;;;9.10;;
27031;SDS011;14580;52.918;9.214;2023-02-15T05:23:02;49.43;;;10.13;;
27031;SDS011;14580;52.918;9.214;2023-02-15T05:25:27;51.63;;;9.40;;
27031;SDS011;14580;52.918;9.214;2023-02-15T05:28:12;37.57;;;9.07;;
27031;SDS011;14580;52.918;9.214;2023-02-15T05:33:12;72.80;;;9.23;;
27031;SDS011;14580;52.918;9.214;2023-02-15T05:35:38;36.57;;;8.93;;
27031;SDS011;14580;52.918;9.214;2023-02-15T05:38:04;30.73;;;8.43;;
27031;SDS011;14580;52.918;9.214;2023-02-15T05:40:30;29.43;;;8.23;;
27031;SDS011;14580;52.918;9.214;2023-02-15T05:42:56;45.43;;;8.37;;
27031;SDS011;14580;52.918;9.214;2023-02-15T05:45:21;48.60;;;9.37;;
27031;SDS011;14580;52.918;9.214;2023-02-15T05:47:47;27.50;;;8.33;;
27031;SDS011;14580;52.918;9.214;2023-02-15T05:50:13;45.40;;;8.30;;
27031;SDS011;14580;52.918;9.214;2023-02-15T05:52:38;26.13;;;7.73;;
27031;SDS011;14580;52.918;9.214;2023-02-15T05:55:04;24.83;;;7.17;;
27031;SDS011;14580;52.918;9.214;2023-02-15T05:57:30;29.23;;;7.03;;
27031;SDS011;14580;52.918;9.214;2023-02-15T05:59:56;18.30;;;7.87;;
27031;SDS011;14580;52.918;9.214;2023-02-15T06:02:22;24.03;;;8.70;;
27031;SDS011;14580;52.918;9.214;2023-02-15T06:04:47;44.73;;;8.17;;
27031;SDS011;14580;52.918;9.214;2023-02-15T06:07:13;27.27;;;8.20;;
27031;SDS011;14580;52.918;9.214;2023-02-15T06:09:38;47.60;;;9.23;;
27031;SDS011;14580;52.918;9.214;2023-02-15T06:12:04;43.10;;;8.67;;
27031;SDS011;14580;52.918;9.214;2023-02-15T06:14:30;48.43;;;9.23;;
27031;SDS011;14580;52.918;9.214;2023-02-15T06:16:55;33.10;;;8.23;;
27031;SDS011;14580;52.918;9.214;2023-02-15T06:19:21;16.17;;;7.03;;
27031;SDS011;14580;52.918;9.214;2023-02-15T06:21:47;19.20;;;7.83;;
27031;SDS011;14580;52.918;9.214;2023-02-15T06:24:13;17.97;;;7.73;;
27031;SDS011;14580;52.918;9.214;2023-02-15T06:26:39;11.57;;;6.87;;
27031;SDS011;14580;52.918;9.214;2023-02-15T06:29:05;20.83;;;8.03;;
27031;SDS011;14580;52.918;9.214;2023-02-15T06:31:30;40.27;;;8.43;;
27031;SDS011;14580;52.918;9.214;2023-02-15T06:33:56;41.90;;;9.50;;
27031;SDS011;14580;52.918;9.214;2023-02-15T06:36:28;13.60;;;6.77;;
27031;SDS011;14580;52.918;9.214;2023-02-15T06:38:53;32.30;;;7.70;;
27031;SDS011;14580;52.918;9.214;2023-02-15T06:41:19;26.83;;;8.23;;
27031;SDS011;14580;52.918;9.214;2023-02-15T06:43:45;33.37;;;7.63;;
27031;SDS011;14580;52.918;9.214;2023-02-15T06:46:11;49.10;;;8.70;;
27031;SDS011;14580;52.918;9.214;2023-02-15T06:48:36;10.90;;;7.53;;
27031;SDS011;14580;52.918;9.214;2023-02-15T06:51:02;43.67;;;8.17;;
27031;SDS011;14580;52.918;9.214;2023-02-15T06:53:28;57.50;;;9.23;;
27031;SDS011;14580;52.918;9.214;2023-02-15T06:55:59;52.90;;;8.70;;
27031;SDS011;14580;52.918;9.214;2023-02-15T06:58:31;24.13;;;8.80;;
27031;SDS011;14580;52.918;9.214;2023-02-15T07:00:57;31.27;;;7.77;;
27031;SDS011;14580;52.918;9.214;2023-02-15T07:03:23;33.70;;;9.03;;
27031;SDS011;14580;52.918;9.214;2023-02-15T07:05:48;35.80;;;8.33;;
27031;SDS011;14580;52.918;9.214;2023-02-15T07:08:14;16.10;;;7.60;;
27031;SDS011;14580;52.918;9.214;2023-02-15T07:10:43;22.90;;;8.37;;
27031;SDS011;14580;52.918;9.214;2023-02-15T07:13:09;16.20;;;7.87;;
27031;SDS011;14580;52.918;9.214;2023-02-15T07:15:34;14.27;;;7.47;;
27031;SDS011;14580;52.918;9.214;2023-02-15T07:18:00;26.37;;;8.33;;
27031;SDS011;14580;52.918;9.214;2023-02-15T07:20:26;13.50;;;8.00;;
27031;SDS011;14580;52.918;9.214;2023-02-15T07:22:51;16.77;;;8.73;;
27031;SDS011;14580;52.918;9.214;2023-02-15T07:25:17;13.37;;;7.83;;
27031;SDS011;14580;52.918;9.214;2023-02-15T07:27:43;10.00;;;7.67;;
27031;SDS011;14580;52.918;9.214;2023-02-15T07:30:10;22.90;;;7.77;;
27031;SDS011;14580;52.918;9.214;2023-02-15T07:32:38;16.87;;;8.60;;
27031;SDS011;14580;52.918;9.214;2023-02-15T07:35:23;12.67;;;8.13;;
27031;SDS011;14580;52.918;9.214;2023-02-15T07:37:49;23.73;;;7.93;;
27031;SDS011;14580;52.918;9.214;2023-02-15T07:40:15;12.83;;;8.10;;
27031;SDS011;14580;52.918;9.214;2023-02-15T07:42:40;11.67;;;8.00;;
27031;SDS011;14580;52.918;9.214;2023-02-15T07:45:06;16.90;;;8.80;;
27031;SDS011;14580;52.918;9.214;2023-02-15T07:47:32;28.93;;;8.73;;
27031;SDS011;14580;52.918;9.214;2023-02-15T07:49:58;22.83;;;8.20;;
27031;SDS011;14580;52.918;9.214;2023-02-15T07:52:23;15.40;;;7.87;;
27031;SDS011;14580;52.918;9.214;2023-02-15T07:54:50;19.60;;;7.70;;
27031;SDS011;14580;52.918;9.214;2023-02-15T07:57:16;10.80;;;7.90;;
27031;SDS011;14580;52.918;9.214;2023-02-15T07:59:41;13.43;;;7.73;;
27031;SDS011;14580;52.918;9.214;2023-02-15T08:02:10;13.50;;;8.00;;
27031;SDS011;14580;52.918;9.214;2023-02-15T08:04:36;15.97;;;8.40;;
27031;SDS011;14580;52.918;9.214;2023-02-15T08:07:01;13.93;;;8.47;;
27031;SDS011;14580;52.918;9.214;2023-02-15T08:09:27;12.00;;;8.70;;
27031;SDS011;14580;52.918;9.214;2023-02-15T08:11:53;13.27;;;8.23;;
27031;SDS011;14580;52.918;9.214;2023-02-15T08:14:20;14.23;;;9.23;;
27031;SDS011;14580;52.918;9.214;2023-02-15T08:16:58;13.00;;;9.37;;
27031;SDS011;14580;52.918;9.214;2023-02-15T08:19:28;19.00;;;8.40;;
27031;SDS011;14580;52.918;9.214;2023-02-15T08:21:56;20.57;;;9.37;;
27031;SDS011;14580;52.918;9.214;2023-02-15T08:24:30;13.83;;;8.03;;
27031;SDS011;14580;52.918;9.214;2023-02-15T08:26:59;14.83;;;8.53;;
27031;SDS011;14580;52.918;9.214;2023-02-15T08:29:27;9.50;;;6.77;;
27031;SDS011;14580;52.918;9.214;2023-02-15T08:31:55;11.90;;;7.80;;
27031;SDS011;14580;52.918;9.214;2023-02-15T08:34:26;23.70;;;8.47;;
27031;SDS011;14580;52.918;9.214;2023-02-15T08:36:53;10.90;;;7.93;;
27031;SDS011;14580;52.918;9.214;2023-02-15T08:39:18;12.87;;;8.33;;
27031;SDS011;14580;52.918;9.214;2023-02-15T08:41:45;12.60;;;8.40;;
27031;SDS011;14580;52.918;9.214;2023-02-15T08:44:12;14.23;;;8.93;;
27031;SDS011;14580;52.918;9.214;2023-02-15T08:46:40;11.83;;;8.60;;
27031;SDS011;14580;52.918;9.214;2023-02-15T08:49:06;14.10;;;8.50;;
27031;SDS011;14580;52.918;9.214;2023-02-15T08:51:33;12.80;;;8.07;;
27031;SDS011;14580;52.918;9.214;2023-02-15T08:54:01;10.13;;;7.73;;
27031;SDS011;14580;52.918;9.214;2023-02-15T08:56:30;20.17;;;8.70;;
27031;SDS011;14580;52.918;9.214;2023-02-15T08:58:58;14.23;;;8.17;;
27031;SDS011;14580;52.918;9.214;2023-02-15T09:01:24;13.20;;;8.77;;
27031;SDS011;14580;52.918;9.214;2023-02-15T09:03:54;12.97;;;8.60;;
27031;SDS011;14580;52.918;9.214;2023-02-15T09:06:24;11.93;;;8.13;;
27031;SDS011;14580;52.918;9.214;2023-02-15T09:08:50;13.23;;;8.83;;
27031;SDS011;14580;52.918;9.214;2023-02-15T09:11:17;14.87;;;9.30;;
27031;SDS011;14580;52.918;9.214;2023-02-15T09:13:52;15.00;;;8.87;;
27031;SDS011;14580;52.918;9.214;2023-02-15T09:16:21;14.03;;;9.60;;
27031;SDS011;14580;52.918;9.214;2023-02-15T09:18:48;16.50;;;9.07;;
27031;SDS011;14580;52.918;9.214;2023-02-15T09:21:15;15.00;;;8.97;;
27031;SDS011;14580;52.918;9.214;2023-02-15T09:23:42;13.03;;;8.77;;
27031;SDS011;14580;52.918;9.214;2023-02-15T09:26:10;12.80;;;9.20;;
27031;SDS011;14580;52.918;9.214;2023-02-15T09:28:40;12.43;;;8.70;;
27031;SDS011;14580;52.918;9.214;2023-02-15T09:31:14;14.70;;;8.90;;
27031;SDS011;14580;52.918;9.214;2023-02-15T09:33:42;12.23;;;8.27;;
27031;SDS011;14580;52.918;9.214;2023-02-15T09:36:19;11.67;;;8.73;;
27031;SDS011;14580;52.918;9.214;2023-02-15T09:38:58;15.63;;;9.10;;
27031;SDS011;14580;52.918;9.214;2023-02-15T10:26:18;14.40;;;10.90;;
27031;SDS011;14580;52.918;9.214;2023-02-15T10:28:50;14.47;;;9.97;;
27031;SDS011;14580;52.918;9.214;2023-02-15T10:31:27;14.03;;;10.33;;
27031;SDS011;14580;52.918;9.214;2023-02-15T10:50:59;14.13;;;11.53;;
27031;SDS011;14580;52.918;9.214;2023-02-15T10:56:17;15.47;;;9.77;;
27031;SDS011;14580;52.918;9.214;2023-02-15T11:02:01;13.83;;;10.43;;
27031;SDS011;14580;52.918;9.214;2023-02-15T11:04:39;16.03;;;11.17;;
27031;SDS011;14580;52.918;9.214;2023-02-15T11:07:40;13.97;;;10.43;;
27031;SDS011;14580;52.918;9.214;2023-02-15T11:12:40;12.87;;;10.13;;
27031;SDS011;14580;52.918;9.214;2023-02-15T11:17:57;13.87;;;9.97;;
27031;SDS011;14580;52.918;9.214;2023-02-15T11:20:33;19.93;;;11.93;;
27031;SDS011;14580;52.918;9.214;2023-02-15T11:23:14;15.37;;;10.63;;
27031;SDS011;14580;52.918;9.214;2023-02-15T11:25:41;14.70;;;10.53;;
27031;SDS011;14580;52.918;9.214;2023-02-15T11:28:11;16.17;;;11.70;;
27031;SDS011;14580;52.918;9.214;2023-02-15T11:30:45;16.70;;;11.70;;
27031;SDS011;14580;52.918;9.214;2023-02-15T11:33:21;17.40;;;11.77;;
27031;SDS011;14580;52.918;9.214;2023-02-15T11:35:58;18.87;;;12.73;;
27031;SDS011;14580;52.918;9.214;2023-02-15T11:38:26;18.53;;;12.83;;
27031;SDS011;14580;52.918;9.214;2023-02-15T11:41:18;17.07;;;12.00;;
27031;SDS011;14580;52.918;9.214;2023-02-15T11:46:16;21.27;;;13.23;;
27031;SDS011;14580;52.918;9.214;2023-02-15T11:48:43;18.07;;;13.23;;
27031;SDS011;14580;52.918;9.214;2023-02-15T11:51:11;19.47;;;13.30;;
27031;SDS011;14580;52.918;9.214;2023-02-15T11:53:42;19.80;;;12.93;;
27031;SDS011;14580;52.918;9.214;2023-02-15T11:56:19;17.50;;;12.37;;
27031;SDS011;14580;52.918;9.214;2023-02-15T11:59:29;17.30;;;12.80;;
27031;SDS011;14580;52.918;9.214;2023-02-15T12:01:37;17.77;;;12.10;;
27031;SDS011;14580;52.918;9.214;2023-02-15T12:06:52;18.13;;;12.83;;
27031;SDS011;14580;52.918;9.214;2023-02-15T12:10:26;18.60;;;12.87;;
27031;SDS011;14580;52.918;9.214;2023-02-15T12:12:38;18.77;;;12.40;;
27031;SDS011;14580;52.918;9.214;2023-02-15T12:15:06;20.50;;;13.57;;
27031;SDS011;14580;52.918;9.214;2023-02-15T12:17:34;19.53;;;12.87;;
27031;SDS011;14580;52.918;9.214;2023-02-15T12:20:45;19.33;;;12.83;;
27031;SDS011;14580;52.918;9.214;2023-02-15T12:22:59;20.00;;;13.50;;
27031;SDS011;14580;52.918;9.214;2023-02-15T12:25:42;19.30;;;12.10;;
27031;SDS011;14580;52.918;9.214;2023-02-15T12:28:26;21.87;;;13.77;;
27031;SDS011;14580;52.918;9.214;2023-02-15T12:30:59;18.17;;;13.10;;
27031;SDS011;14580;52.918;9.214;2023-02-15T12:35:59;20.23;;;14.40;;
27031;SDS011;14580;52.918;9.214;2023-02-15T12:39:04;23.63;;;14.20;;
27031;SDS011;14580;52.918;9.214;2023-02-15T12:41:36;17.13;;;11.80;;
27031;SDS011;14580;52.918;9.214;2023-02-15T12:44:15;16.20;;;11.80;;
27031;SDS011;14580;52.918;9.214;2023-02-15T12:46:58;18.37;;;12.27;;
27031;SDS011;14580;52.918;9.214;2023-02-15T12:49:29;20.83;;;12.40;;
27031;SDS011;14580;52.918;9.214;2023-02-15T12:51:57;19.03;;;13.00;;
27031;SDS011;14580;52.918;9.214;2023-02-15T12:54:34;16.50;;;11.53;;
27031;SDS011;14580;52.918;9.214;2023-02-15T12:57:14;18.10;;;13.00;;
27031;SDS011;14580;52.918;9.214;2023-02-15T13:07:44;17.70;;;11.27;;
27031;SDS011;14580;52.918;9.214;2023-02-15T13:10:57;20.40;;;11.47;;
27031;SDS011;14580;52.918;9.214;2023-02-15T13:12:59;15.33;;;11.80;;
27031;SDS011;14580;52.918;9.214;2023-02-15T13:15:37;18.20;;;11.73;;
27031;SDS011;14580;52.918;9.214;2023-02-15T13:18:08;20.23;;;11.50;;
27031;SDS011;14580;52.918;9.214;2023-02-15T13:20:38;18.10;;;10.93;;
27031;SDS011;14580;52.918;9.214;2023-02-15T13:23:06;19.13;;;12.13;;
27031;SDS011;14580;52.918;9.214;2023-02-15T13:25:43;22.30;;;12.03;;
27031;SDS011;14580;52.918;9.214;2023-02-15T13:28:15;19.13;;;11.53;;
27031;SDS011;14580;52.918;9.214;2023-02-15T13:30:43;18.43;;;12.27;;
27031;SDS011;14580;52.918;9.214;2023-02-15T13:33:20;18.23;;;13.20;;
27031;SDS011;14580;52.918;9.214;2023-02-15T13:36:11;21.17;;;13.23;;
27031;SDS011;14580;52.918;9.214;2023-02-15T13:44:21;22.03;;;12.67;;
27031;SDS011;14580;52.918;9.214;2023-02-15T13:47:05;21.33;;;13.03;;
27031;SDS011;14580;52.918;9.214;2023-02-15T13:52:41;27.30;;;15.53;;
27031;SDS011;14580;52.918;9.214;2023-02-15T14:20:24;19.70;;;14.07;;
27031;SDS011;14580;52.918;9.214;2023-02-15T14:26:00;20.23;;;13.57;;
27031;SDS011;14580;52.918;9.214;2023-02-15T14:31:43;21.50;;;13.93;;
27031;SDS011;14580;52.918;9.214;2023-02-15T14:34:45;20.10;;;13.57;;
27031;SDS011;14580;52.918;9.214;2023-02-15T14:37:39;22.17;;;14.83;;
27031;SDS011;14580;52.918;9.214;2023-02-15T14:45:48;19.53;;;12.53;;
27031;SDS011;14580;52.918;9.214;2023-02-15T14:50:50;19.00;;;13.97;;
27031;SDS011;14580;52.918;9.214;2023-02-15T14:53:16;23.93;;;13.60;;
27031;SDS011;14580;52.918;9.214;2023-02-15T14:55:42;19.27;;;12.70;;
27031;SDS011;14580;52.918;9.214;2023-02-15T14:58:11;19.57;;;12.57;;
27031;SDS011;14580;52.918;9.214;2023-02-15T15:00:38;20.90;;;13.07;;
27031;SDS011;14580;52.918;9.214;2023-02-15T15:03:19;20.20;;;12.83;;
27031;SDS011;14580;52.918;9.214;2023-02-15T15:05:48;25.17;;;13.43;;
27031;SDS011;14580;52.918;9.214;2023-02-15T15:08:26;19.53;;;12.53;;
27031;SDS011;14580;52.918;9.214;2023-02-15T15:10:57;21.60;;;13.30;;
27031;SDS011;14580;52.918;9.214;2023-02-15T15:13:57;18.97;;;12.73;;
27031;SDS011;14580;52.918;9.214;2023-02-15T15:18:49;39.37;;;26.77;;
27031;SDS011;14580;52.918;9.214;2023-02-15T15:32:59;18.80;;;13.17;;
27031;SDS011;14580;52.918;9.214;2023-02-15T15:41:09;21.67;;;13.20;;
27031;SDS011;14580;52.918;9.214;2023-02-15T15:49:19;20.10;;;12.83;;
27031;SDS011;14580;52.918;9.214;2023-02-15T15:51:45;23.33;;;12.90;;
27031;SDS011;14580;52.918;9.214;2023-02-15T15:54:19;18.00;;;12.70;;
27031;SDS011;14580;52.918;9.214;2023-02-15T15:56:47;20.47;;;12.03;;
27031;SDS011;14580;52.918;9.214;2023-02-15T15:59:21;21.20;;;12.43;;
27031;SDS011;14580;52.918;9.214;2023-02-15T16:01:49;18.90;;;12.63;;
27031;SDS011;14580;52.918;9.214;2023-02-15T16:04:25;20.90;;;12.63;;
27031;SDS011;14580;52.918;9.214;2023-02-15T16:06:52;21.73;;;13.40;;
27031;SDS011;14580;52.918;9.214;2023-02-15T16:09:19;20.27;;;12.77;;
27031;SDS011;14580;52.918;9.214;2023-02-15T16:11:56;17.47;;;12.13;;
27031;SDS011;14580;52.918;9.214;2023-02-15T16:14:30;19.20;;;12.30;;
27031;SDS011;14580;52.918;9.214;2023-02-15T16:16:58;18.83;;;12.13;;
27031;SDS011;14580;52.918;9.214;2023-02-15T16:19:35;20.97;;;12.37;;
27031;SDS011;14580;52.918;9.214;2023-02-15T16:22:04;17.73;;;11.87;;
27031;SDS011;14580;52.918;9.214;2023-02-15T16:29:44;19.30;;;12.67;;
27031;SDS011;14580;52.918;9.214;2023-02-15T16:32:21;21.67;;;13.20;;
27031;SDS011;14580;52.918;9.214;2023-02-15T16:34:51;24.10;;;12.33;;
27031;SDS011;14580;52.918;9.214;2023-02-15T16:37:22;25.27;;;14.73;;
27031;SDS011;14580;52.918;9.214;2023-02-15T16:39:51;31.83;;;16.73;;
27031;SDS011;14580;52.918;9.214;2023-02-15T16:42:18;32.80;;;17.67;;
27031;SDS011;14580;52.918;9.214;2023-02-15T16:44:54;28.47;;;17.43;;
27031;SDS011;14580;52.918;9.214;2023-02-15T16:47:26;26.57;;;15.13;;
27031;SDS011;14580;52.918;9.214;2023-02-15T16:49:55;25.03;;;14.77;;
27031;SDS011;14580;52.918;9.214;2023-02-15T16:52:26;27.23;;;15.37;;
27031;SDS011;14580;52.918;9.214;2023-02-15T16:55:03;26.53;;;16.43;;
27031;SDS011;14580;52.918;9.214;2023-02-15T16:57:32;20.60;;;13.30;;
27031;SDS011;14580;52.918;9.214;2023-02-15T17:00:03;24.23;;;14.10;;
27031;SDS011;14580;52.918;9.214;2023-02-15T17:02:32;26.53;;;14.97;;
27031;SDS011;14580;52.918;9.214;2023-02-15T17:08:27;20.67;;;13.27;;
27031;SDS011;14580;52.918;9.214;2023-02-15T17:11:32;22.33;;;13.73;;
27031;SDS011;14580;52.918;9.214;2023-02-15T17:13:39;28.03;;;15.57;;
27031;SDS011;14580;52.918;9.214;2023-02-15T17:19:12;22.87;;;14.50;;
27031;SDS011;14580;52.918;9.214;2023-02-15T17:21:45;24.33;;;16.03;;
27031;SDS011;14580;52.918;9.214;2023-02-15T17:24:33;20.87;;;13.40;;
27031;SDS011;14580;52.918;9.214;2023-02-15T17:27:22;24.10;;;13.77;;
27031;SDS011;14580;52.918;9.214;2023-02-15T17:29:50;20.93;;;13.43;;
27031;SDS011;14580;52.918;9.214;2023-02-15T17:32:29;28.23;;;16.07;;
27031;SDS011;14580;52.918;9.214;2023-02-15T17:40:07;29.63;;;16.57;;
27031;SDS011;14580;52.918;9.214;2023-02-15T17:42:44;29.13;;;16.80;;
27031;SDS011;14580;52.918;9.214;2023-02-15T17:45:12;28.63;;;16.00;;
27031;SDS011;14580;52.918;9.214;2023-02-15T17:47:39;23.50;;;15.53;;
27031;SDS011;14580;52.918;9.214;2023-02-15T17:50:05;22.50;;;14.37;;
27031;SDS011;14580;52.918;9.214;2023-02-15T17:52:32;25.93;;;14.90;;
27031;SDS011;14580;52.918;9.214;2023-02-15T17:54:57;26.23;;;15.63;;
27031;SDS011;14580;52.918;9.214;2023-02-15T17:57:42;27.33;;;17.20;;
27031;SDS011;14580;52.918;9.214;2023-02-15T18:00:12;26.67;;;16.67;;
27031;SDS011;14580;52.918;9.214;2023-02-15T18:02:57;32.27;;;16.67;;
27031;SDS011;14580;52.918;9.214;2023-02-15T18:05:41;25.87;;;15.67;;
27031;SDS011;14580;52.918;9.214;2023-02-15T18:08:26;24.17;;;14.73;;
27031;SDS011;14580;52.918;9.214;2023-02-15T18:11:11;24.93;;;14.67;;
27031;SDS011;14580;52.918;9.214;2023-02-15T18:13:55;23.83;;;15.93;;
27031;SDS011;14580;52.918;9.214;2023-02-15T18:16:25;25.10;;;14.27;;
27031;SDS011;14580;52.918;9.214;2023-02-15T18:18:53;25.60;;;15.70;;